sensor_id;sensor_type;location;lat;lon;timestamp;pressure;altitude;pressure_sealevel;temperature;humidity
70314;BME280;71040;47.526;18.986;2023-09-19T00:02:54;99266.50;;;21.66;83.10
70314;BME280;71040;47.526;18.986;2023-09-19T00:07:57;99268.31;;;21.65;83.62
70314;BME280;71040;47.526;18.986;2023-09-19T00:13:02;99274.47;;;21.66;83.85
70314;BME280;71040;47.526;18.986;2023-09-19T00:18:08;99261.31;;;21.64;83.78
70314;BME280;71040;47.526;18.986;2023-09-19T00:23:11;99257.84;;;21.64;84.09
70314;BME280;71040;47.526;18.986;2023-09-19T00:28:13;99258.81;;;21.63;83.89
70314;BME280;71040;47.526;18.986;2023-09-19T00:33:19;99261.63;;;21.61;83.55
70314;BME280;71040;47.526;18.986;2023-09-19T00:38:20;99265.97;;;21.62;84.01
70314;BME280;71040;47.526;18.986;2023-09-19T00:43:22;99258.13;;;21.61;83.36
70314;BME280;71040;47.526;18.986;2023-09-19T00:48:25;99258.13;;;21.61;83.70
70314;BME280;71040;47.526;18.986;2023-09-19T00:53:28;99255.59;;;21.59;84.34
70314;BME280;71040;47.526;18.986;2023-09-19T00:58:34;99246.78;;;21.59;83.90
70314;BME280;71040;47.526;18.986;2023-09-19T01:03:40;99258.28;;;21.59;84.43
70314;BME280;71040;47.526;18.986;2023-09-19T01:08:43;99250.44;;;21.58;84.22
70314;BME280;71040;47.526;18.986;2023-09-19T01:14:02;99253.09;;;21.58;84.54
70314;BME280;71040;47.526;18.986;2023-09-19T01:30:17;99249.44;;;21.59;84.97
70314;BME280;71040;47.526;18.986;2023-09-19T01:35:18;99246.97;;;21.57;84.68
70314;BME280;71040;47.526;18.986;2023-09-19T01:40:21;99236.34;;;21.57;85.21
70314;BME280;71040;47.526;18.986;2023-09-19T01:51:02;99234.66;;;21.56;84.62
70314;BME280;71040;47.526;18.986;2023-09-19T01:56:08;99237.47;;;21.55;84.85
70314;BME280;71040;47.526;18.986;2023-09-19T02:01:19;99236.06;;;21.51;85.13
70314;BME280;71040;47.526;18.986;2023-09-19T02:06:22;99235.25;;;21.50;85.11
70314;BME280;71040;47.526;18.986;2023-09-19T02:11:27;99234.56;;;21.48;85.26
70314;BME280;71040;47.526;18.986;2023-09-19T02:16:29;99240.84;;;21.47;85.38
70314;BME280;71040;47.526;18.986;2023-09-19T02:21:32;99243.69;;;21.46;85.56
70314;BME280;71040;47.526;18.986;2023-09-19T02:26:37;99238.38;;;21.46;85.48
70314;BME280;71040;47.526;18.986;2023-09-19T02:31:40;99235.72;;;21.46;85.74
70314;BME280;71040;47.526;18.986;2023-09-19T02:36:45;99238.50;;;21.44;85.99
70314;BME280;71040;47.526;18.986;2023-09-19T02:41:46;99236.00;;;21.43;85.81
70314;BME280;71040;47.526;18.986;2023-09-19T02:46:48;99231.53;;;21.43;86.02
70314;BME280;71040;47.526;18.986;2023-09-19T02:51:51;99233.50;;;21.41;85.94
70314;BME280;71040;47.526;18.986;2023-09-19T02:56:54;99232.50;;;21.42;86.00
70314;BME280;71040;47.526;18.986;2023-09-19T03:01:57;99220.34;;;21.40;86.27
70314;BME280;71040;47.526;18.986;2023-09-19T03:07:11;99232.09;;;21.37;86.34
70314;BME280;71040;47.526;18.986;2023-09-19T03:12:16;99228.75;;;21.35;86.45
70314;BME280;71040;47.526;18.986;2023-09-19T03:17:19;99234.41;;;21.32;86.86
70314;BME280;71040;47.526;18.986;2023-09-19T03:22:22;99228.25;;;21.31;86.70
70314;BME280;71040;47.526;18.986;2023-09-19T03:27:22;99230.34;;;21.28;86.91
70314;BME280;71040;47.526;18.986;2023-09-19T03:32:25;99226.00;;;21.27;87.37
70314;BME280;71040;47.526;18.986;2023-09-19T03:37:26;99234.97;;;21.26;87.29
70314;BME280;71040;47.526;18.986;2023-09-19T03:42:27;99231.63;;;21.24;87.63
70314;BME280;71040;47.526;18.986;2023-09-19T03:47:27;99236.78;;;21.25;87.63
70314;BME280;71040;47.526;18.986;2023-09-19T03:52:27;99225.47;;;21.23;87.44
70314;BME280;71040;47.526;18.986;2023-09-19T03:57:30;99235.94;;;21.25;88.00
70314;BME280;71040;47.526;18.986;2023-09-19T04:02:33;99249.38;;;21.23;87.84
70314;BME280;71040;47.526;18.986;2023-09-19T04:07:36;99261.03;;;21.22;87.89
70314;BME280;71040;47.526;18.986;2023-09-19T04:12:36;99251.25;;;21.23;87.90
70314;BME280;71040;47.526;18.986;2023-09-19T04:17:36;99244.06;;;21.23;87.81
70314;BME280;71040;47.526;18.986;2023-09-19T04:22:39;99258.19;;;21.24;87.08
70314;BME280;71040;47.526;18.986;2023-09-19T04:27:43;99259.03;;;21.24;86.95
70314;BME280;71040;47.526;18.986;2023-09-19T04:32:44;99261.69;;;21.24;86.99
70314;BME280;71040;47.526;18.986;2023-09-19T04:37:50;99271.66;;;21.22;86.56
70314;BME280;71040;47.526;18.986;2023-09-19T04:42:55;99281.28;;;21.23;86.43
70314;BME280;71040;47.526;18.986;2023-09-19T04:48:02;99292.94;;;21.22;86.24
70314;BME280;71040;47.526;18.986;2023-09-19T04:53:05;99293.78;;;21.23;85.94
70314;BME280;71040;47.526;18.986;2023-09-19T04:58:09;99305.38;;;21.22;85.87
70314;BME280;71040;47.526;18.986;2023-09-19T05:03:12;99295.97;;;21.18;85.95
70314;BME280;71040;47.526;18.986;2023-09-19T05:08:15;99307.59;;;21.17;85.79
70314;BME280;71040;47.526;18.986;2023-09-19T05:13:18;99320.03;;;21.16;86.25
70314;BME280;71040;47.526;18.986;2023-09-19T05:18:21;99333.75;;;21.12;86.24
70314;BME280;71040;47.526;18.986;2023-09-19T05:23:24;99336.72;;;21.09;86.72
70314;BME280;71040;47.526;18.986;2023-09-19T05:28:30;99343.03;;;21.08;86.20
70314;BME280;71040;47.526;18.986;2023-09-19T05:33:30;99337.84;;;21.06;86.24
70314;BME280;71040;47.526;18.986;2023-09-19T05:38:40;99342.47;;;21.04;86.79
70314;BME280;71040;47.526;18.986;2023-09-19T05:43:42;99330.31;;;21.02;86.48
70314;BME280;71040;47.526;18.986;2023-09-19T05:48:43;99330.31;;;21.02;86.03
70314;BME280;71040;47.526;18.986;2023-09-19T05:53:44;99344.00;;;21.07;86.03
70314;BME280;71040;47.526;18.986;2023-09-19T05:58:44;99342.44;;;21.14;86.14
70314;BME280;71040;47.526;18.986;2023-09-19T06:03:48;99341.31;;;21.16;86.19
70314;BME280;71040;47.526;18.986;2023-09-19T06:08:51;99341.91;;;21.20;86.30
70314;BME280;71040;47.526;18.986;2023-09-19T06:13:52;99356.88;;;21.21;86.44
70314;BME280;71040;47.526;18.986;2023-09-19T06:18:53;99370.03;;;21.22;86.46
70314;BME280;71040;47.526;18.986;2023-09-19T06:23:54;99362.03;;;21.22;86.27
70314;BME280;71040;47.526;18.986;2023-09-19T06:28:58;99395.59;;;21.23;86.31
70314;BME280;71040;47.526;18.986;2023-09-19T06:34:02;99390.28;;;21.23;86.36
70314;BME280;71040;47.526;18.986;2023-09-19T06:39:15;99398.25;;;21.23;86.59
70314;BME280;71040;47.526;18.986;2023-09-19T06:44:20;99391.94;;;21.24;86.65
70314;BME280;71040;47.526;18.986;2023-09-19T06:49:27;99401.91;;;21.22;86.31
70314;BME280;71040;47.526;18.986;2023-09-19T06:54:29;99408.06;;;21.23;86.54
70314;BME280;71040;47.526;18.986;2023-09-19T06:59:35;99395.59;;;21.23;86.92
70314;BME280;71040;47.526;18.986;2023-09-19T07:04:41;99404.56;;;21.22;86.71
70314;BME280;71040;47.526;18.986;2023-09-19T07:09:41;99411.72;;;21.22;86.74
70314;BME280;71040;47.526;18.986;2023-09-19T07:14:44;99416.84;;;21.23;86.76
70314;BME280;71040;47.526;18.986;2023-09-19T07:19:47;99407.22;;;21.22;86.65
70314;BME280;71040;47.526;18.986;2023-09-19T07:24:49;99413.53;;;21.21;86.73
70314;BME280;71040;47.526;18.986;2023-09-19T07:29:55;99429.47;;;21.21;86.88
70314;BME280;71040;47.526;18.986;2023-09-19T07:34:59;99423.19;;;21.22;87.11
70314;BME280;71040;47.526;18.986;2023-09-19T07:40:05;99423.31;;;21.21;86.69
70314;BME280;71040;47.526;18.986;2023-09-19T07:45:10;99433.13;;;21.20;86.95
70314;BME280;71040;47.526;18.986;2023-09-19T07:50:25;99440.25;;;21.20;87.10
70314;BME280;71040;47.526;18.986;2023-09-19T07:55:26;99453.53;;;21.20;87.34
70314;BME280;71040;47.526;18.986;2023-09-19T08:00:29;99461.50;;;21.20;87.32
70314;BME280;71040;47.526;18.986;2023-09-19T08:05:29;99456.34;;;21.18;87.40
70314;BME280;71040;47.526;18.986;2023-09-19T08:10:30;99464.41;;;21.17;87.31
70314;BME280;71040;47.526;18.986;2023-09-19T08:15:40;99489.19;;;21.17;87.43
70314;BME280;71040;47.526;18.986;2023-09-19T08:20:50;99492.13;;;21.14;87.26
70314;BME280;71040;47.526;18.986;2023-09-19T08:25:58;99500.66;;;21.18;87.32
70314;BME280;71040;47.526;18.986;2023-09-19T08:31:06;99503.59;;;21.15;87.61
70314;BME280;71040;47.526;18.986;2023-09-19T08:36:07;99513.25;;;21.16;87.70
70314;BME280;71040;47.526;18.986;2023-09-19T08:41:09;99524.84;;;21.15;87.58
70314;BME280;71040;47.526;18.986;2023-09-19T08:46:11;99543.47;;;21.15;87.38
70314;BME280;71040;47.526;18.986;2023-09-19T08:51:24;99560.38;;;21.14;87.79
70314;BME280;71040;47.526;18.986;2023-09-19T08:56:29;99571.84;;;21.14;87.52
70314;BME280;71040;47.526;18.986;2023-09-19T09:01:31;99575.63;;;21.12;87.83
70314;BME280;71040;47.526;18.986;2023-09-19T09:06:35;99557.03;;;21.12;87.80
70314;BME280;71040;47.526;18.986;2023-09-19T09:11:36;99537.59;;;21.11;87.69
70314;BME280;71040;47.526;18.986;2023-09-19T09:16:42;99534.09;;;21.11;87.82
70314;BME280;71040;47.526;18.986;2023-09-19T09:21:45;99526.97;;;21.11;87.90
70314;BME280;71040;47.526;18.986;2023-09-19T09:26:45;99532.44;;;21.10;88.12
70314;BME280;71040;47.526;18.986;2023-09-19T09:31:49;99512.00;;;21.10;87.92
70314;BME280;71040;47.526;18.986;2023-09-19T09:36:50;99515.63;;;21.09;88.19
70314;BME280;71040;47.526;18.986;2023-09-19T09:41:55;99524.44;;;21.10;88.06
70314;BME280;71040;47.526;18.986;2023-09-19T09:46:59;99526.53;;;21.06;88.17
70314;BME280;71040;47.526;18.986;2023-09-19T09:52:22;99529.91;;;21.08;88.27
70314;BME280;71040;47.526;18.986;2023-09-19T09:57:24;99545.97;;;21.07;88.36
70314;BME280;71040;47.526;18.986;2023-09-19T10:02:27;99544.16;;;21.07;88.39
70314;BME280;71040;47.526;18.986;2023-09-19T10:07:36;99540.81;;;21.05;88.37
70314;BME280;71040;47.526;18.986;2023-09-19T10:12:47;99539.00;;;21.06;88.41
70314;BME280;71040;47.526;18.986;2023-09-19T10:17:52;99545.16;;;21.06;88.55
70314;BME280;71040;47.526;18.986;2023-09-19T10:22:54;99546.38;;;21.02;88.49
70314;BME280;71040;47.526;18.986;2023-09-19T10:28:00;99561.09;;;21.06;88.65
70314;BME280;71040;47.526;18.986;2023-09-19T10:33:14;99569.91;;;21.07;88.52
70314;BME280;71040;47.526;18.986;2023-09-19T10:38:18;99566.53;;;21.05;88.45
70314;BME280;71040;47.526;18.986;2023-09-19T10:43:26;99558.56;;;21.05;88.76
70314;BME280;71040;47.526;18.986;2023-09-19T10:48:34;99562.19;;;21.04;88.78
70314;BME280;71040;47.526;18.986;2023-09-19T10:58:50;99571.00;;;21.04;88.95
70314;BME280;71040;47.526;18.986;2023-09-19T11:04:20;99588.66;;;21.05;88.81
70314;BME280;71040;47.526;18.986;2023-09-19T11:09:23;99596.88;;;21.02;88.92
70314;BME280;71040;47.526;18.986;2023-09-19T11:30:38;99579.00;;;21.04;89.14
70314;BME280;71040;47.526;18.986;2023-09-19T11:35:58;99592.28;;;21.04;89.27
70314;BME280;71040;47.526;18.986;2023-09-19T11:46:22;99595.63;;;21.06;89.48
70314;BME280;71040;47.526;18.986;2023-09-19T11:51:24;99574.38;;;21.06;89.58
70314;BME280;71040;47.526;18.986;2023-09-19T11:56:38;99568.22;;;21.06;89.58
70314;BME280;71040;47.526;18.986;2023-09-19T12:01:57;99562.06;;;21.05;89.53
70314;BME280;71040;47.526;18.986;2023-09-19T12:06:58;99570.75;;;21.07;89.48
70314;BME280;71040;47.526;18.986;2023-09-19T12:11:59;99566.41;;;21.06;89.67
70314;BME280;71040;47.526;18.986;2023-09-19T12:17:02;99564.59;;;21.07;89.69
70314;BME280;71040;47.526;18.986;2023-09-19T12:22:05;99570.75;;;21.07;89.72
70314;BME280;71040;47.526;18.986;2023-09-19T12:27:09;99574.38;;;21.06;89.64
70314;BME280;71040;47.526;18.986;2023-09-19T12:32:12;99592.97;;;21.06;89.77
70314;BME280;71040;47.526;18.986;2023-09-19T12:37:14;99586.56;;;21.09;89.71
70314;BME280;71040;47.526;18.986;2023-09-19T12:42:24;99588.38;;;21.08;89.79
70314;BME280;71040;47.526;18.986;2023-09-19T12:47:28;99597.19;;;21.09;89.80
70314;BME280;71040;47.526;18.986;2023-09-19T12:52:38;99597.19;;;21.09;89.82
70314;BME280;71040;47.526;18.986;2023-09-19T12:57:40;99595.38;;;21.09;90.04
70314;BME280;71040;47.526;18.986;2023-09-19T13:08:28;99598.88;;;21.10;89.85
70314;BME280;71040;47.526;18.986;2023-09-19T13:13:38;99605.03;;;21.10;89.90
70314;BME280;71040;47.526;18.986;2023-09-19T13:18:52;99604.19;;;21.10;90.03
70314;BME280;71040;47.526;18.986;2023-09-19T13:24:01;99608.66;;;21.09;89.97
70314;BME280;71040;47.526;18.986;2023-09-19T13:29:15;99606.00;;;21.09;90.06
70314;BME280;71040;47.526;18.986;2023-09-19T13:34:19;99599.72;;;21.10;89.86
70314;BME280;71040;47.526;18.986;2023-09-19T13:39:19;99608.38;;;21.12;89.96
70314;BME280;71040;47.526;18.986;2023-09-19T13:44:20;99608.38;;;21.12;90.04
70314;BME280;71040;47.526;18.986;2023-09-19T13:49:23;99623.47;;;21.12;90.18
70314;BME280;71040;47.526;18.986;2023-09-19T13:54:26;99621.66;;;21.12;90.04
70314;BME280;71040;47.526;18.986;2023-09-19T13:59:26;99622.66;;;21.11;90.07
70314;BME280;71040;47.526;18.986;2023-09-19T14:04:29;99629.63;;;21.12;90.05
70314;BME280;71040;47.526;18.986;2023-09-19T14:09:36;99636.63;;;21.13;89.72
70314;BME280;71040;47.526;18.986;2023-09-19T14:14:38;99626.00;;;21.13;89.77
70314;BME280;71040;47.526;18.986;2023-09-19T14:19:41;99625.16;;;21.13;89.95
70314;BME280;71040;47.526;18.986;2023-09-19T14:24:41;99618.84;;;21.14;90.22
70314;BME280;71040;47.526;18.986;2023-09-19T14:29:44;99621.66;;;21.12;90.31
70314;BME280;71040;47.526;18.986;2023-09-19T14:34:44;99618.84;;;21.14;90.04
70314;BME280;71040;47.526;18.986;2023-09-19T14:39:48;99616.19;;;21.14;90.10
70314;BME280;71040;47.526;18.986;2023-09-19T14:44:51;99623.19;;;21.15;89.99
70314;BME280;71040;47.526;18.986;2023-09-19T14:49:51;99610.03;;;21.13;90.06
70314;BME280;71040;47.526;18.986;2023-09-19T14:54:52;99623.34;;;21.13;89.95
70314;BME280;71040;47.526;18.986;2023-09-19T14:59:57;99613.53;;;21.14;90.13
70314;BME280;71040;47.526;18.986;2023-09-19T15:04:58;99617.03;;;21.14;89.99
70314;BME280;71040;47.526;18.986;2023-09-19T15:09:58;99620.53;;;21.15;90.15
70314;BME280;71040;47.526;18.986;2023-09-19T15:15:01;99625.84;;;21.15;90.07
70314;BME280;71040;47.526;18.986;2023-09-19T15:20:04;99625.84;;;21.15;90.31
70314;BME280;71040;47.526;18.986;2023-09-19T15:25:10;99632.00;;;21.15;90.20
70314;BME280;71040;47.526;18.986;2023-09-19T15:30:11;99631.16;;;21.15;90.15
70314;BME280;71040;47.526;18.986;2023-09-19T15:35:11;99645.44;;;21.14;90.08
70314;BME280;71040;47.526;18.986;2023-09-19T15:40:19;99649.78;;;21.15;90.23
70314;BME280;71040;47.526;18.986;2023-09-19T15:45:19;99643.63;;;21.14;90.21
70314;BME280;71040;47.526;18.986;2023-09-19T15:50:20;99650.75;;;21.14;90.36
70314;BME280;71040;47.526;18.986;2023-09-19T15:55:21;99655.09;;;21.15;90.15
70314;BME280;71040;47.526;18.986;2023-09-19T16:00:26;99649.91;;;21.13;90.48
70314;BME280;71040;47.526;18.986;2023-09-19T16:05:35;99659.56;;;21.14;90.32
70314;BME280;71040;47.526;18.986;2023-09-19T16:10:39;99655.38;;;21.12;90.35
70314;BME280;71040;47.526;18.986;2023-09-19T16:15:42;99664.88;;;21.14;90.43
70314;BME280;71040;47.526;18.986;2023-09-19T16:20:49;99662.22;;;21.14;90.63
70314;BME280;71040;47.526;18.986;2023-09-19T16:26:08;99667.53;;;21.14;90.28
70314;BME280;71040;47.526;18.986;2023-09-19T16:31:09;99656.19;;;21.12;90.38
70314;BME280;71040;47.526;18.986;2023-09-19T16:36:11;99668.38;;;21.15;90.58
70314;BME280;71040;47.526;18.986;2023-09-19T16:41:12;99663.19;;;21.13;90.44
70314;BME280;71040;47.526;18.986;2023-09-19T16:46:13;99664.88;;;21.14;90.61
70314;BME280;71040;47.526;18.986;2023-09-19T16:51:16;99672.03;;;21.14;90.59
70314;BME280;71040;47.526;18.986;2023-09-19T16:56:17;99680.97;;;21.13;90.52
70314;BME280;71040;47.526;18.986;2023-09-19T17:01:18;99684.59;;;21.12;90.46
70314;BME280;71040;47.526;18.986;2023-09-19T17:06:24;99694.25;;;21.13;90.46
70314;BME280;71040;47.526;18.986;2023-09-19T17:11:30;99707.53;;;21.13;90.44
70314;BME280;71040;47.526;18.986;2023-09-19T17:16:30;99708.53;;;21.12;90.58
70314;BME280;71040;47.526;18.986;2023-09-19T17:21:34;99716.50;;;21.12;90.49
70314;BME280;71040;47.526;18.986;2023-09-19T17:26:35;99722.81;;;21.11;90.62
70314;BME280;71040;47.526;18.986;2023-09-19T17:31:35;99721.81;;;21.12;90.19
70314;BME280;71040;47.526;18.986;2023-09-19T17:36:36;99722.81;;;21.11;90.37
70314;BME280;71040;47.526;18.986;2023-09-19T17:41:41;99719.44;;;21.09;90.31
70314;BME280;71040;47.526;18.986;2023-09-19T17:46:44;99726.44;;;21.10;90.42
70314;BME280;71040;47.526;18.986;2023-09-19T17:51:44;99729.09;;;21.10;90.64
70314;BME280;71040;47.526;18.986;2023-09-19T17:56:45;99733.59;;;21.09;90.44
70314;BME280;71040;47.526;18.986;2023-09-19T18:01:47;99741.69;;;21.08;90.38
70314;BME280;71040;47.526;18.986;2023-09-19T18:06:50;99739.16;;;21.06;90.45
70314;BME280;71040;47.526;18.986;2023-09-19T18:11:50;99750.50;;;21.08;90.28
70314;BME280;71040;47.526;18.986;2023-09-19T18:16:53;99754.13;;;21.07;90.30
70314;BME280;71040;47.526;18.986;2023-09-19T18:21:57;99755.09;;;21.06;90.42
70314;BME280;71040;47.526;18.986;2023-09-19T18:27:00;99757.75;;;21.06;90.39
70314;BME280;71040;47.526;18.986;2023-09-19T18:32:01;99762.25;;;21.06;90.29
70314;BME280;71040;47.526;18.986;2023-09-19T18:37:02;99757.91;;;21.05;90.00
70314;BME280;71040;47.526;18.986;2023-09-19T18:42:05;99763.22;;;21.05;90.33
70314;BME280;71040;47.526;18.986;2023-09-19T18:47:05;99769.50;;;21.04;90.22
70314;BME280;71040;47.526;18.986;2023-09-19T18:52:08;99769.75;;;21.01;90.26
70314;BME280;71040;47.526;18.986;2023-09-19T18:57:08;99768.66;;;21.03;90.22
70314;BME280;71040;47.526;18.986;2023-09-19T19:02:09;99777.59;;;21.02;90.20
70314;BME280;71040;47.526;18.986;2023-09-19T19:07:14;99778.56;;;21.01;90.12
70314;BME280;71040;47.526;18.986;2023-09-19T19:12:17;99783.88;;;21.01;90.30
70314;BME280;71040;47.526;18.986;2023-09-19T19:17:18;99782.19;;;21.00;90.25
70314;BME280;71040;47.526;18.986;2023-09-19T19:22:21;99798.16;;;21.00;90.13
70314;BME280;71040;47.526;18.986;2023-09-19T19:27:22;99797.34;;;21.00;90.27
70314;BME280;71040;47.526;18.986;2023-09-19T19:32:22;99795.66;;;20.99;90.15
70314;BME280;71040;47.526;18.986;2023-09-19T19:37:26;99795.78;;;20.97;90.33
70314;BME280;71040;47.526;18.986;2023-09-19T19:42:26;99801.09;;;20.97;90.28
70314;BME280;71040;47.526;18.986;2023-09-19T19:47:31;99797.59;;;20.96;90.53
70314;BME280;71040;47.526;18.986;2023-09-19T19:52:32;99805.69;;;20.95;90.25
70314;BME280;71040;47.526;18.986;2023-09-19T19:57:33;99812.81;;;20.94;90.57
70314;BME280;71040;47.526;18.986;2023-09-19T20:02:35;99811.97;;;20.94;90.40
70314;BME280;71040;47.526;18.986;2023-09-19T20:07:35;99820.94;;;20.93;90.52
70314;BME280;71040;47.526;18.986;2023-09-19T20:12:39;99812.13;;;20.92;90.59
70314;BME280;71040;47.526;18.986;2023-09-19T20:17:39;99821.06;;;20.91;90.84
70314;BME280;71040;47.526;18.986;2023-09-19T20:22:42;99832.66;;;20.90;90.59
70314;BME280;71040;47.526;18.986;2023-09-19T20:27:42;99823.16;;;20.88;90.68
70314;BME280;71040;47.526;18.986;2023-09-19T20:32:47;99829.28;;;20.88;90.66
70314;BME280;71040;47.526;18.986;2023-09-19T20:37:50;99828.47;;;20.88;90.67
70314;BME280;71040;47.526;18.986;2023-09-19T20:42:51;99832.94;;;20.87;90.65
70314;BME280;71040;47.526;18.986;2023-09-19T20:47:54;99831.38;;;20.85;90.85
70314;BME280;71040;47.526;18.986;2023-09-19T20:52:54;99828.72;;;20.85;90.60
70314;BME280;71040;47.526;18.986;2023-09-19T20:57:56;99831.50;;;20.83;90.80
70314;BME280;71040;47.526;18.986;2023-09-19T21:02:57;99833.31;;;20.83;90.87
70314;BME280;71040;47.526;18.986;2023-09-19T21:07:58;99826.44;;;20.80;90.57
70314;BME280;71040;47.526;18.986;2023-09-19T21:13:03;99840.56;;;20.81;90.76
70314;BME280;71040;47.526;18.986;2023-09-19T21:18:06;99838.91;;;20.80;90.66
70314;BME280;71040;47.526;18.986;2023-09-19T21:23:07;99840.72;;;20.79;90.64
70314;BME280;71040;47.526;18.986;2023-09-19T21:28:13;99833.72;;;20.78;91.06
70314;BME280;71040;47.526;18.986;2023-09-19T21:33:14;99837.34;;;20.77;90.80
70314;BME280;71040;47.526;18.986;2023-09-19T21:38:15;99836.66;;;20.75;90.76
70314;BME280;71040;47.526;18.986;2023-09-19T21:43:16;99852.59;;;20.75;90.67
70314;BME280;71040;47.526;18.986;2023-09-19T21:48:17;99853.56;;;20.74;90.91
70314;BME280;71040;47.526;18.986;2023-09-19T21:53:22;99858.03;;;20.74;91.05
70314;BME280;71040;47.526;18.986;2023-09-19T21:58:22;99854.66;;;20.72;91.00
70314;BME280;71040;47.526;18.986;2023-09-19T22:03:22;99859.84;;;20.73;90.96
70314;BME280;71040;47.526;18.986;2023-09-19T22:08:32;99852.97;;;20.71;91.02
70314;BME280;71040;47.526;18.986;2023-09-19T22:13:38;99854.78;;;20.70;90.68
70314;BME280;71040;47.526;18.986;2023-09-19T22:18:44;99846.94;;;20.69;90.91
70314;BME280;71040;47.526;18.986;2023-09-19T22:23:52;99849.72;;;20.67;91.00
70314;BME280;71040;47.526;18.986;2023-09-19T22:28:54;99858.53;;;20.68;90.90
70314;BME280;71040;47.526;18.986;2023-09-19T22:33:57;99858.81;;;20.65;90.87
70314;BME280;71040;47.526;18.986;2023-09-19T22:39:02;99868.59;;;20.64;91.30
70314;BME280;71040;47.526;18.986;2023-09-19T22:44:17;99867.03;;;20.62;91.17
70314;BME280;71040;47.526;18.986;2023-09-19T22:49:18;99868.97;;;20.59;91.03
70314;BME280;71040;47.526;18.986;2023-09-19T22:54:19;99871.50;;;20.61;91.35
70314;BME280;71040;47.526;18.986;2023-09-19T22:59:37;99883.94;;;20.60;91.32
70314;BME280;71040;47.526;18.986;2023-09-19T23:04:42;99889.38;;;20.59;91.04
70314;BME280;71040;47.526;18.986;2023-09-19T23:09:50;99885.28;;;20.55;90.87
70314;BME280;71040;47.526;18.986;2023-09-19T23:14:53;99886.84;;;20.57;90.95
70314;BME280;71040;47.526;18.986;2023-09-19T23:19:56;99891.44;;;20.55;91.27
70314;BME280;71040;47.526;18.986;2023-09-19T23:24:58;99890.59;;;20.55;91.11
70314;BME280;71040;47.526;18.986;2023-09-19T23:30:13;99888.91;;;20.54;90.98
70314;BME280;71040;47.526;18.986;2023-09-19T23:35:15;99892.41;;;20.54;91.02
70314;BME280;71040;47.526;18.986;2023-09-19T23:40:23;99898.00;;;20.51;91.00
70314;BME280;71040;47.526;18.986;2023-09-19T23:45:26;99893.66;;;20.50;91.02
70314;BME280;71040;47.526;18.986;2023-09-19T23:50:27;99897.28;;;20.49;91.38
70314;BME280;71040;47.526;18.986;2023-09-19T23:55:29;99892.94;;;20.48;91.36
